createdAt,value
2022-12-03T00:00:12.868Z,20.43
2022-12-03T00:04:16.127Z,20.83
2022-12-03T00:08:18.880Z,22.30
2022-12-03T00:12:22.915Z,20.37
2022-12-03T00:16:25.755Z,19.43
2022-12-03T00:20:28.484Z,20.93
2022-12-03T00:24:31.183Z,19.67
2022-12-03T00:28:35.255Z,20.20
2022-12-03T00:32:37.962Z,19.67
2022-12-03T00:36:40.772Z,22.83
2022-12-03T00:40:43.566Z,21.07
2022-12-03T00:44:47.700Z,21.33
2022-12-03T00:48:50.447Z,21.53
2022-12-03T00:52:53.151Z,21.30
2022-12-03T00:56:56.014Z,22.33
2022-12-03T01:01:00.145Z,21.40
2022-12-03T01:05:03.344Z,21.63
2022-12-03T01:09:06.395Z,21.07
2022-12-03T01:13:09.151Z,21.43
2022-12-03T01:17:13.503Z,21.43
2022-12-03T01:21:16.229Z,20.13
2022-12-03T01:25:18.956Z,21.73
2022-12-03T01:29:21.688Z,22.27
2022-12-03T01:33:25.761Z,20.57
2022-12-03T01:37:28.509Z,21.07
2022-12-03T01:41:33.016Z,21.33
2022-12-03T01:45:35.731Z,18.83
2022-12-03T01:49:44.029Z,19.73
2022-12-03T01:53:47.642Z,19.23
2022-12-03T01:57:52.412Z,19.77
2022-12-03T02:01:55.172Z,18.53
2022-12-03T02:05:59.306Z,19.07
2022-12-03T02:10:05.312Z,19.00
2022-12-03T02:14:11.411Z,18.40
2022-12-03T02:18:14.204Z,19.17
2022-12-03T02:22:29.220Z,18.27
2022-12-03T02:26:33.509Z,18.90
2022-12-03T02:30:37.479Z,20.73
2022-12-03T02:34:42.646Z,19.23
2022-12-03T02:38:46.692Z,19.13
2022-12-03T02:42:53.613Z,19.67
2022-12-03T02:46:56.380Z,20.00
2022-12-03T02:51:02.127Z,20.27
2022-12-03T02:55:07.944Z,21.47
2022-12-03T02:59:12.307Z,21.23
2022-12-03T03:03:15.389Z,22.33
2022-12-03T03:07:18.218Z,22.73
2022-12-03T03:11:22.099Z,22.17
2022-12-03T03:15:26.365Z,23.07
2022-12-03T03:19:30.631Z,22.77
2022-12-03T03:23:33.441Z,21.97
2022-12-03T03:27:36.741Z,22.97
2022-12-03T03:31:42.539Z,23.23
2022-12-03T03:35:46.520Z,23.47
2022-12-03T03:39:49.394Z,23.53
2022-12-03T03:43:52.233Z,23.40
2022-12-03T03:47:57.714Z,24.43
2022-12-03T03:52:00.562Z,22.97
2022-12-03T03:56:03.376Z,22.97
2022-12-03T04:00:08.277Z,23.80
2022-12-03T04:04:20.471Z,23.07
2022-12-03T04:08:23.219Z,22.63
2022-12-03T04:12:43.572Z,23.37
2022-12-03T04:16:46.318Z,22.27
2022-12-03T04:20:50.473Z,21.93
2022-12-03T04:25:13.161Z,22.27
2022-12-03T04:29:14.902Z,21.83
2022-12-03T04:33:35.438Z,23.70
2022-12-03T04:37:39.527Z,21.97
2022-12-03T04:41:42.249Z,23.20
2022-12-03T04:45:45.069Z,24.70
2022-12-03T04:49:49.928Z,26.07
2022-12-03T04:53:53.985Z,27.30
2022-12-03T04:57:56.761Z,25.60
2022-12-03T05:01:59.841Z,26.80
2022-12-03T05:06:02.593Z,28.43
2022-12-03T05:10:08.820Z,29.90
2022-12-03T05:14:12.131Z,28.00
2022-12-03T05:18:14.843Z,31.10
2022-12-03T05:22:17.563Z,28.57
2022-12-03T05:26:22.334Z,30.27
2022-12-03T05:30:25.136Z,28.27
2022-12-03T05:34:27.881Z,32.33
2022-12-03T05:38:30.614Z,28.53
2022-12-03T05:42:52.343Z,29.40
2022-12-03T05:46:55.147Z,27.83
2022-12-03T05:50:57.867Z,27.33
2022-12-03T05:55:00.607Z,25.67
2022-12-03T05:59:06.137Z,25.93
2022-12-03T06:03:09.220Z,26.00
2022-12-03T06:07:14.188Z,26.20
2022-12-03T06:11:17.158Z,28.63
2022-12-03T06:15:21.835Z,29.47
2022-12-03T06:19:24.525Z,28.93
2022-12-03T06:23:27.323Z,29.47
2022-12-03T06:27:30.117Z,29.77
2022-12-03T06:31:34.329Z,32.40
2022-12-03T06:35:37.819Z,32.30
2022-12-03T06:39:40.558Z,31.50
2022-12-03T06:43:43.234Z,33.97
2022-12-03T06:47:47.277Z,32.83
2022-12-03T06:51:49.982Z,35.03
2022-12-03T06:55:52.645Z,33.27
2022-12-03T06:59:55.603Z,33.87
2022-12-03T07:03:59.897Z,31.43
2022-12-03T07:08:02.724Z,32.20
2022-12-03T07:12:06.133Z,29.03
2022-12-03T07:16:09.577Z,30.10
2022-12-03T07:20:14.628Z,32.27
2022-12-03T07:24:17.454Z,29.77
2022-12-03T07:28:20.174Z,28.30
2022-12-03T07:32:23.054Z,29.00
2022-12-03T07:36:27.168Z,26.90
2022-12-03T07:40:30.051Z,26.33
2022-12-03T07:44:33.004Z,26.63
2022-12-03T07:48:35.780Z,23.97
2022-12-03T07:52:39.835Z,21.63
2022-12-03T07:56:42.550Z,20.93
2022-12-03T08:00:45.328Z,19.17
2022-12-03T08:04:48.076Z,20.80
2022-12-03T08:09:07.407Z,18.83
2022-12-03T08:13:14.545Z,18.97
2022-12-03T08:17:19.732Z,16.10
2022-12-03T08:21:23.099Z,16.13
2022-12-03T08:25:31.910Z,17.13
2022-12-03T08:29:34.648Z,17.03
2022-12-03T08:33:38.174Z,16.63
2022-12-03T08:37:41.007Z,18.90
2022-12-03T08:42:03.156Z,19.30
2022-12-03T08:46:06.272Z,22.07
2022-12-03T08:50:27.338Z,20.43
2022-12-03T08:54:30.195Z,24.07
2022-12-03T08:58:39.493Z,25.63
2022-12-03T09:02:46.247Z,25.53
2022-12-03T09:06:49.133Z,26.20
2022-12-03T09:10:51.858Z,27.20
2022-12-03T09:14:56.436Z,26.57
2022-12-03T09:18:59.275Z,28.23
2022-12-03T09:23:02.038Z,27.70
2022-12-03T09:27:04.932Z,25.87
2022-12-03T09:31:09.487Z,26.13
2022-12-03T09:35:12.653Z,26.37
2022-12-03T09:39:15.372Z,26.77
2022-12-03T09:43:19.114Z,24.77
2022-12-03T09:47:25.099Z,27.20
2022-12-03T09:51:32.521Z,24.80
2022-12-03T09:55:35.270Z,24.53
2022-12-03T09:59:39.128Z,26.23
2022-12-03T10:03:46.960Z,23.67
2022-12-03T10:07:50.316Z,26.07
2022-12-03T10:11:53.147Z,22.90
2022-12-03T10:15:58.186Z,22.90
2022-12-03T10:20:02.754Z,22.90
2022-12-03T10:24:23.430Z,23.47
2022-12-03T10:28:32.936Z,21.93
2022-12-03T10:32:42.169Z,23.87
2022-12-03T10:36:46.256Z,24.27
2022-12-03T10:40:49.484Z,23.40
2022-12-03T10:45:09.057Z,22.20
2022-12-03T10:49:16.069Z,24.63
2022-12-03T10:53:21.867Z,21.63
2022-12-03T10:57:25.681Z,23.70
2022-12-03T11:01:28.502Z,24.60
2022-12-03T11:05:31.306Z,24.33
2022-12-03T11:09:35.392Z,22.37
2022-12-03T11:13:53.228Z,23.33
2022-12-03T11:17:55.979Z,24.20
2022-12-03T11:22:44.846Z,22.20
2022-12-03T11:27:22.923Z,23.73
2022-12-03T11:31:38.490Z,23.53
2022-12-03T11:36:12.760Z,24.23
2022-12-03T11:40:39.111Z,21.53
2022-12-03T11:44:43.765Z,24.50
2022-12-03T11:48:47.371Z,24.93
2022-12-03T11:52:55.332Z,25.37
2022-12-03T11:56:58.155Z,27.53
2022-12-03T12:01:03.922Z,26.57
2022-12-03T12:05:17.648Z,26.37
2022-12-03T12:09:51.264Z,25.73
2022-12-03T12:13:56.947Z,24.93
2022-12-03T12:18:36.038Z,26.87
2022-12-03T12:22:39.266Z,26.80
2022-12-03T12:26:51.357Z,27.63
2022-12-03T12:30:54.156Z,27.80
2022-12-03T12:35:03.055Z,25.07
2022-12-03T12:39:09.092Z,28.33
2022-12-03T12:43:24.123Z,28.03
2022-12-03T12:47:29.822Z,28.07
2022-12-03T12:51:34.010Z,29.00
2022-12-03T12:55:37.866Z,28.73
2022-12-03T12:59:40.771Z,28.20
2022-12-03T13:03:43.599Z,29.93
2022-12-03T13:07:47.775Z,26.67
2022-12-03T13:11:54.614Z,27.13
2022-12-03T13:16:03.641Z,28.90
2022-12-03T13:20:18.998Z,27.53
2022-12-03T13:24:32.735Z,26.43
2022-12-03T13:28:36.113Z,27.27
2022-12-03T13:32:39.827Z,28.07
2022-12-03T13:36:43.837Z,31.93
2022-12-03T13:40:55.823Z,28.73
2022-12-03T13:45:02.576Z,29.33
2022-12-03T13:49:14.688Z,28.40
2022-12-03T13:53:22.740Z,28.20
2022-12-03T13:57:26.941Z,28.40
2022-12-03T14:01:29.910Z,28.33
2022-12-03T14:05:32.707Z,30.07
2022-12-03T14:09:35.413Z,34.67
2022-12-03T14:13:39.500Z,34.70
2022-12-03T14:17:42.278Z,29.43
2022-12-03T14:21:45.006Z,32.40
2022-12-03T14:25:47.759Z,30.60
2022-12-03T14:29:52.459Z,30.50
2022-12-03T14:33:55.588Z,29.70
2022-12-03T14:37:58.305Z,31.57
2022-12-03T14:42:16.696Z,34.53
2022-12-03T14:46:21.019Z,34.77
2022-12-03T14:50:23.756Z,36.33
2022-12-03T14:54:26.642Z,36.57
2022-12-03T14:58:29.329Z,34.83
2022-12-03T15:02:33.553Z,32.77
2022-12-03T15:06:36.337Z,36.77
2022-12-03T15:10:38.999Z,34.33
2022-12-03T15:14:42.403Z,31.37
2022-12-03T15:18:47.508Z,32.50
2022-12-03T15:22:50.233Z,31.27
2022-12-03T15:26:53.464Z,32.60
2022-12-03T15:30:57.500Z,31.43
2022-12-03T15:35:08.185Z,30.27
2022-12-03T15:39:10.861Z,32.13
2022-12-03T15:43:13.575Z,32.03
2022-12-03T15:47:16.365Z,30.17
2022-12-03T15:51:20.689Z,34.63
2022-12-03T15:55:23.423Z,32.43
2022-12-03T15:59:26.165Z,29.83
2022-12-03T16:03:28.946Z,30.83
2022-12-03T16:07:33.195Z,29.73
2022-12-03T16:11:36.058Z,29.43
2022-12-03T16:15:38.853Z,28.03
2022-12-03T16:19:41.628Z,28.10
2022-12-03T16:23:45.674Z,29.20
2022-12-03T16:27:49.417Z,30.77
2022-12-03T16:31:52.190Z,28.63
2022-12-03T16:35:54.917Z,29.90
2022-12-03T16:39:59.027Z,28.33
2022-12-03T16:44:03.398Z,30.20
2022-12-03T16:48:07.435Z,29.73
2022-12-03T16:52:10.117Z,30.03
2022-12-03T16:56:14.734Z,30.27
2022-12-03T17:00:18.510Z,29.40
2022-12-03T17:04:21.238Z,29.57
2022-12-03T17:08:24.344Z,29.03
2022-12-03T17:12:42.278Z,28.43
2022-12-03T17:16:51.162Z,29.10
2022-12-03T17:20:53.902Z,29.83
2022-12-03T17:24:56.616Z,28.90
2022-12-03T17:29:00.806Z,30.17
2022-12-03T17:33:03.541Z,28.20
2022-12-03T17:37:06.323Z,31.00
2022-12-03T17:41:09.158Z,30.63
2022-12-03T17:45:14.039Z,30.07
2022-12-03T17:49:16.900Z,31.63
2022-12-03T17:53:19.659Z,30.60
2022-12-03T17:57:22.380Z,31.17
2022-12-03T18:01:26.658Z,30.60
2022-12-03T18:05:29.411Z,30.37
2022-12-03T18:09:32.120Z,31.17
2022-12-03T18:13:34.903Z,32.83
2022-12-03T18:17:38.957Z,31.23
2022-12-03T18:21:41.803Z,34.17
2022-12-03T18:25:44.967Z,29.67
2022-12-03T18:29:47.694Z,31.27
2022-12-03T18:33:51.734Z,32.90
2022-12-03T18:37:54.561Z,30.47
2022-12-03T18:41:57.365Z,35.03
2022-12-03T18:46:00.103Z,32.07
2022-12-03T18:50:04.348Z,33.93
2022-12-03T18:54:12.324Z,31.73
2022-12-03T18:58:15.150Z,34.10
2022-12-03T19:02:38.944Z,33.50
2022-12-03T19:06:43.580Z,33.93
2022-12-03T19:10:47.083Z,34.00
2022-12-03T19:14:50.983Z,32.03
2022-12-03T19:18:54.891Z,32.17
2022-12-03T19:22:58.961Z,34.03
2022-12-03T19:27:01.784Z,35.03
2022-12-03T19:31:06.425Z,33.87
2022-12-03T19:35:11.145Z,34.50
2022-12-03T19:39:15.411Z,34.60
2022-12-03T19:43:18.262Z,34.93
2022-12-03T19:47:21.016Z,35.43
2022-12-03T19:51:34.665Z,34.10
2022-12-03T19:55:39.319Z,34.27
2022-12-03T19:59:42.723Z,35.17
2022-12-03T20:03:47.885Z,36.47
2022-12-03T20:07:50.727Z,35.50
2022-12-03T20:11:55.675Z,36.67
2022-12-03T20:15:58.649Z,37.23
2022-12-03T20:20:01.470Z,36.43
2022-12-03T20:24:05.219Z,35.00
2022-12-03T20:28:09.281Z,36.47
2022-12-03T20:32:12.100Z,35.10
2022-12-03T20:36:16.601Z,35.17
2022-12-03T20:40:19.352Z,35.53
2022-12-03T20:44:23.404Z,36.53
2022-12-03T20:48:26.075Z,33.77
2022-12-03T20:52:28.968Z,37.33
2022-12-03T20:56:34.003Z,36.80
2022-12-03T21:00:38.101Z,37.30
2022-12-03T21:04:41.416Z,35.97
2022-12-03T21:08:44.676Z,36.47
2022-12-03T21:12:47.488Z,38.23
2022-12-03T21:17:07.834Z,36.97
2022-12-03T21:21:12.873Z,38.93
2022-12-03T21:25:15.644Z,37.20
2022-12-03T21:29:18.467Z,37.30
2022-12-03T21:33:22.603Z,36.63
2022-12-03T21:37:25.342Z,37.33
2022-12-03T21:41:28.101Z,37.37
2022-12-03T21:45:30.789Z,38.17
2022-12-03T21:49:35.933Z,36.93
2022-12-03T21:53:43.462Z,38.07
2022-12-03T21:57:46.564Z,38.53
2022-12-03T22:01:49.378Z,38.33
2022-12-03T22:05:53.521Z,36.30
2022-12-03T22:09:56.378Z,35.57
2022-12-03T22:13:59.296Z,39.20
2022-12-03T22:18:01.991Z,36.87
2022-12-03T22:22:06.055Z,38.30
2022-12-03T22:26:12.875Z,39.13
2022-12-03T22:30:15.957Z,39.53
2022-12-03T22:34:18.815Z,37.03
2022-12-03T22:38:23.390Z,38.33
2022-12-03T22:42:26.202Z,39.63
2022-12-03T22:46:29.023Z,38.53
2022-12-03T22:50:31.840Z,36.97
2022-12-03T22:54:35.985Z,38.63
2022-12-03T22:58:39.615Z,38.00
2022-12-03T23:02:42.361Z,37.47
2022-12-03T23:06:45.141Z,38.73
2022-12-03T23:10:50.955Z,37.50
2022-12-03T23:14:55.076Z,37.70
2022-12-03T23:18:59.384Z,37.27
2022-12-03T23:23:02.108Z,40.40
2022-12-03T23:27:06.182Z,40.07
2022-12-03T23:31:17.019Z,35.30
2022-12-03T23:35:20.057Z,38.93
2022-12-03T23:39:22.748Z,43.00
2022-12-03T23:43:26.758Z,39.50
2022-12-03T23:47:29.574Z,40.83
2022-12-03T23:51:32.271Z,40.50
2022-12-03T23:55:35.062Z,39.83
2022-12-03T23:59:42.020Z,38.03
